createdAt,value
2022-10-21T00:02:42.810Z,4.80
2022-10-21T00:05:46.209Z,4.17
2022-10-21T00:08:50.833Z,4.00
2022-10-21T00:11:53.963Z,4.32
2022-10-21T00:14:57.414Z,4.00
2022-10-21T00:18:00.941Z,4.10
2022-10-21T00:21:07.856Z,4.18
2022-10-21T00:24:12.507Z,4.55
2022-10-21T00:27:15.843Z,5.30
2022-10-21T00:30:19.042Z,3.63
2022-10-21T00:33:22.646Z,3.70
2022-10-21T00:36:25.836Z,4.07
2022-10-21T00:39:30.485Z,4.63
2022-10-21T00:42:44.035Z,4.53
2022-10-21T00:45:54.982Z,4.20
2022-10-21T00:49:00.846Z,3.85
2022-10-21T00:52:09.592Z,4.47
2022-10-21T00:55:14.162Z,4.40
2022-10-21T00:58:22.262Z,3.92
2022-10-21T01:01:28.092Z,3.88
2022-10-21T01:04:31.792Z,4.72
2022-10-21T01:07:37.534Z,4.75
2022-10-21T01:10:45.041Z,4.30
2022-10-21T01:14:15.600Z,4.15
2022-10-21T01:17:45.284Z,4.65
2022-10-21T01:21:21.114Z,4.30
2022-10-21T01:25:09.114Z,4.35
2022-10-21T01:28:30.144Z,4.90
2022-10-21T01:31:40.641Z,4.72
2022-10-21T01:34:53.023Z,4.47
2022-10-21T01:38:11.347Z,4.25
2022-10-21T01:41:28.192Z,3.85
2022-10-21T01:44:42.326Z,4.22
2022-10-21T01:47:51.682Z,4.60
2022-10-21T01:50:59.612Z,4.40
2022-10-21T01:54:10.039Z,4.13
2022-10-21T01:57:19.808Z,5.07
2022-10-21T02:00:23.114Z,4.38
2022-10-21T02:03:32.292Z,5.10
2022-10-21T02:06:36.184Z,4.70
2022-10-21T02:09:39.712Z,4.90
2022-10-21T02:12:47.018Z,4.65
2022-10-21T02:15:52.870Z,4.80
2022-10-21T02:19:00.474Z,4.85
2022-10-21T02:22:09.554Z,5.35
2022-10-21T02:25:21.339Z,4.40
2022-10-21T02:28:24.766Z,5.05
2022-10-21T02:31:49.767Z,4.90
2022-10-21T02:35:12.608Z,4.60
2022-10-21T02:38:25.920Z,4.68
2022-10-21T02:41:32.688Z,4.70
2022-10-21T02:44:36.243Z,5.13
2022-10-21T02:47:41.238Z,4.95
2022-10-21T02:50:45.893Z,5.47
2022-10-21T02:53:49.565Z,4.88
2022-10-21T02:56:52.759Z,5.13
2022-10-21T02:59:55.791Z,5.30
2022-10-21T03:02:59.229Z,5.45
2022-10-21T03:06:03.846Z,5.70
2022-10-21T03:09:07.186Z,5.80
2022-10-21T03:12:10.412Z,4.93
2022-10-21T03:15:13.441Z,5.45
2022-10-21T03:18:16.625Z,7.22
2022-10-21T03:21:21.529Z,6.40
2022-10-21T03:24:28.841Z,5.90
2022-10-21T03:27:32.758Z,6.10
2022-10-21T03:30:35.917Z,6.07
2022-10-21T03:33:39.038Z,5.95
2022-10-21T03:36:43.473Z,6.03
2022-10-21T03:39:46.448Z,5.80
2022-10-21T03:42:50.886Z,6.07
2022-10-21T03:45:53.949Z,6.03
2022-10-21T03:49:02.807Z,5.32
2022-10-21T03:52:10.188Z,5.18
2022-10-21T03:55:13.578Z,4.90
2022-10-21T03:58:16.630Z,5.13
2022-10-21T04:01:19.788Z,4.82
2022-10-21T04:04:23.586Z,4.72
2022-10-21T04:07:27.935Z,5.45
2022-10-21T04:10:31.019Z,5.45
2022-10-21T04:13:35.261Z,5.55
2022-10-21T04:16:38.956Z,6.15
2022-10-21T04:19:42.107Z,6.60
2022-10-21T04:22:46.908Z,6.78
2022-10-21T04:25:50.013Z,7.63
2022-10-21T04:28:53.135Z,7.50
2022-10-21T04:34:59.311Z,7.20
2022-10-21T04:38:03.779Z,7.53
2022-10-21T04:41:07.001Z,7.35
2022-10-21T04:44:10.037Z,6.82
2022-10-21T04:47:13.413Z,6.68
2022-10-21T04:50:17.159Z,7.73
2022-10-21T04:53:22.753Z,7.78
2022-10-21T04:56:25.856Z,7.25
2022-10-21T04:59:28.959Z,7.82
2022-10-21T05:02:32.553Z,7.07
2022-10-21T05:05:35.541Z,6.78
2022-10-21T05:08:39.872Z,7.15
2022-10-21T05:11:43.991Z,7.75
2022-10-21T05:14:47.204Z,7.00
2022-10-21T05:17:50.245Z,7.47
2022-10-21T05:20:55.609Z,6.88
2022-10-21T05:24:00.011Z,7.68
2022-10-21T05:27:03.136Z,8.13
2022-10-21T05:30:07.803Z,8.60
2022-10-21T05:33:11.165Z,8.20
2022-10-21T05:36:17.565Z,8.23
2022-10-21T05:39:24.852Z,7.93
2022-10-21T05:42:27.931Z,9.05
2022-10-21T05:45:31.263Z,8.57
2022-10-21T05:48:34.490Z,9.03
2022-10-21T05:51:37.752Z,8.90
2022-10-21T05:54:42.243Z,9.10
2022-10-21T05:57:45.373Z,8.45
2022-10-21T06:00:49.632Z,8.88
2022-10-21T06:10:09.082Z,10.13
2022-10-21T06:13:12.022Z,9.18
2022-10-21T06:16:17.125Z,9.93
2022-10-21T06:19:20.299Z,9.25
2022-10-21T06:22:23.344Z,9.00
2022-10-21T06:25:27.854Z,8.95
2022-10-21T06:28:35.172Z,8.43
2022-10-21T06:31:38.485Z,10.00
2022-10-21T06:34:42.515Z,9.60
2022-10-21T06:37:46.008Z,9.32
2022-10-21T06:40:50.612Z,9.80
2022-10-21T06:43:53.737Z,9.18
2022-10-21T06:46:56.910Z,10.57
2022-10-21T06:50:02.982Z,9.43
2022-10-21T06:53:06.446Z,9.35
2022-10-21T06:56:14.093Z,9.57
2022-10-21T06:59:17.273Z,8.88
2022-10-21T07:02:20.878Z,9.13
2022-10-21T07:05:23.990Z,9.48
2022-10-21T07:08:46.273Z,10.07
2022-10-21T07:11:51.544Z,9.93
2022-10-21T07:14:55.187Z,10.77
2022-10-21T07:18:00.952Z,10.73
2022-10-21T07:21:09.769Z,9.18
2022-10-21T07:24:13.375Z,10.65
2022-10-21T07:27:17.800Z,9.90
2022-10-21T07:30:21.852Z,9.60
2022-10-21T07:33:25.156Z,10.57
2022-10-21T07:36:32.476Z,9.20
2022-10-21T07:39:35.512Z,10.85
2022-10-21T07:42:40.065Z,9.80
2022-10-21T07:45:44.053Z,9.82
2022-10-21T07:48:47.633Z,9.50
2022-10-21T07:51:51.103Z,8.95
2022-10-21T07:54:54.580Z,8.45
2022-10-21T07:57:59.812Z,10.03
2022-10-21T08:01:06.005Z,10.18
2022-10-21T08:04:09.166Z,9.88
2022-10-21T08:07:13.957Z,9.02
2022-10-21T08:10:17.784Z,8.20
2022-10-21T08:13:22.670Z,8.43
2022-10-21T08:16:27.491Z,8.80
2022-10-21T08:19:30.653Z,8.52
2022-10-21T08:22:33.890Z,8.80
2022-10-21T08:25:37.644Z,8.38
2022-10-21T08:28:43.385Z,9.20
2022-10-21T08:31:46.894Z,9.52
2022-10-21T08:34:50.122Z,8.80
2022-10-21T08:37:53.340Z,9.30
2022-10-21T08:40:56.472Z,9.30
2022-10-21T08:44:07.068Z,9.70
2022-10-21T08:47:20.942Z,9.70
2022-10-21T08:50:29.107Z,8.68
2022-10-21T08:53:40.268Z,9.50
2022-10-21T08:56:43.684Z,10.38
2022-10-21T08:59:49.618Z,10.10
2022-10-21T09:03:22.095Z,9.68
2022-10-21T09:06:32.248Z,10.10
2022-10-21T09:09:45.693Z,10.18
2022-10-21T09:13:05.257Z,9.13
2022-10-21T09:16:20.408Z,10.25
2022-10-21T09:19:43.790Z,10.27
2022-10-21T09:23:03.665Z,9.35
2022-10-21T09:26:17.269Z,8.57
2022-10-21T09:29:30.244Z,9.37
2022-10-21T09:32:41.364Z,9.70
2022-10-21T09:35:51.705Z,9.63
2022-10-21T09:39:01.938Z,9.48
2022-10-21T09:42:13.546Z,8.60
2022-10-21T09:45:34.519Z,8.80
2022-10-21T09:49:16.369Z,9.73
2022-10-21T09:52:10.421Z,8.75
2022-10-21T09:55:24.161Z,9.30
2022-10-21T09:58:47.265Z,8.60
2022-10-21T10:01:51.698Z,9.07
2022-10-21T10:04:56.733Z,9.05
2022-10-21T10:08:28.419Z,9.90
2022-10-21T10:11:35.623Z,9.20
2022-10-21T10:14:42.967Z,9.27
2022-10-21T10:17:48.576Z,9.35
2022-10-21T10:24:27.569Z,9.02
2022-10-21T10:27:31.072Z,8.35
2022-10-21T10:30:50.753Z,8.80
2022-10-21T10:33:59.237Z,9.70
2022-10-21T10:37:15.839Z,9.57
2022-10-21T10:40:31.608Z,10.18
2022-10-21T10:43:37.834Z,9.68
2022-10-21T10:46:41.593Z,10.00
2022-10-21T10:49:45.321Z,8.52
2022-10-21T10:52:48.893Z,8.85
2022-10-21T10:56:20.087Z,9.60
2022-10-21T10:59:39.852Z,8.23
2022-10-21T11:02:52.566Z,8.45
2022-10-21T11:06:13.097Z,8.45
2022-10-21T11:09:21.678Z,8.13
2022-10-21T11:12:28.423Z,8.65
2022-10-21T11:16:11.454Z,8.30
2022-10-21T11:19:30.225Z,7.38
2022-10-21T11:22:45.923Z,7.57
2022-10-21T11:25:58.861Z,8.07
2022-10-21T11:29:23.872Z,8.75
2022-10-21T11:32:45.915Z,8.60
2022-10-21T11:36:06.276Z,8.55
2022-10-21T11:39:45.043Z,8.52
2022-10-21T11:42:54.020Z,8.55
2022-10-21T11:46:07.520Z,8.75
2022-10-21T11:49:36.371Z,9.05
2022-10-21T11:53:12.323Z,9.25
2022-10-21T11:56:30.802Z,9.20
2022-10-21T11:59:59.344Z,8.40
2022-10-21T12:03:36.941Z,9.55
2022-10-21T12:06:53.490Z,8.70
2022-10-21T12:10:05.467Z,8.35
2022-10-21T12:13:18.260Z,9.15
2022-10-21T12:16:28.613Z,8.88
2022-10-21T12:19:34.281Z,8.85
2022-10-21T12:22:44.432Z,9.52
2022-10-21T12:26:03.244Z,9.88
2022-10-21T12:29:16.662Z,8.88
2022-10-21T12:32:32.303Z,9.07
2022-10-21T12:35:52.899Z,9.73
2022-10-21T12:38:58.243Z,9.25
2022-10-21T12:42:12.923Z,9.75
2022-10-21T12:45:29.923Z,9.52
2022-10-21T12:48:38.707Z,9.10
2022-10-21T12:51:52.397Z,9.05
2022-10-21T12:55:00.785Z,10.65
2022-10-21T12:58:09.096Z,9.68
2022-10-21T13:01:42.776Z,9.07
2022-10-21T13:04:52.878Z,9.52
2022-10-21T13:08:28.302Z,9.30
2022-10-21T13:11:41.414Z,9.43
2022-10-21T13:14:47.613Z,10.65
2022-10-21T13:17:56.949Z,10.63
2022-10-21T13:21:00.749Z,9.32
2022-10-21T13:24:24.526Z,10.85
2022-10-21T13:27:32.215Z,10.35
2022-10-21T13:30:38.845Z,10.68
2022-10-21T13:33:53.667Z,10.20
2022-10-21T13:36:58.603Z,10.77
2022-10-21T13:40:07.719Z,11.35
2022-10-21T13:43:18.058Z,9.60
2022-10-21T13:46:28.387Z,10.63
2022-10-21T13:49:34.528Z,10.95
2022-10-21T13:52:39.247Z,10.30
2022-10-21T13:55:44.364Z,10.88
2022-10-21T13:58:54.008Z,10.57
2022-10-21T14:02:03.655Z,9.77
2022-10-21T14:05:27.040Z,10.35
2022-10-21T14:08:35.424Z,9.85
2022-10-21T14:11:53.634Z,10.18
2022-10-21T14:15:06.161Z,11.48
2022-10-21T14:18:09.874Z,10.32
2022-10-21T14:21:20.980Z,10.50
2022-10-21T14:24:35.224Z,9.82
2022-10-21T14:27:42.883Z,10.90
2022-10-21T14:30:49.933Z,10.23
2022-10-21T14:33:53.343Z,11.20
2022-10-21T14:37:09.438Z,10.63
2022-10-21T14:40:26.870Z,11.00
2022-10-21T14:43:39.711Z,10.85
2022-10-21T14:46:48.794Z,11.05
2022-10-21T14:49:55.317Z,10.70
2022-10-21T14:52:58.572Z,10.23
2022-10-21T14:56:05.516Z,11.27
2022-10-21T14:59:23.431Z,11.32
2022-10-21T15:02:31.751Z,10.98
2022-10-21T15:05:39.975Z,10.93
2022-10-21T15:08:59.982Z,9.85
2022-10-21T15:12:20.284Z,10.10
2022-10-21T15:15:52.593Z,10.27
2022-10-21T15:18:58.719Z,9.88
2022-10-21T15:22:05.386Z,10.25
2022-10-21T15:25:18.934Z,11.27
2022-10-21T15:28:27.285Z,10.57
2022-10-21T15:31:39.524Z,9.85
2022-10-21T15:34:43.304Z,9.23
2022-10-21T15:37:49.866Z,9.68
2022-10-21T15:40:56.134Z,8.68
2022-10-21T15:44:18.617Z,9.30
2022-10-21T15:47:24.925Z,9.55
2022-10-21T15:50:30.296Z,9.82
2022-10-21T15:53:33.838Z,10.35
2022-10-21T15:56:37.275Z,8.38
2022-10-21T15:59:46.639Z,9.55
2022-10-21T16:02:53.209Z,10.88
2022-10-21T16:05:56.792Z,9.00
2022-10-21T16:09:00.381Z,10.75
2022-10-21T16:12:06.881Z,10.48
2022-10-21T16:15:11.948Z,10.35
2022-10-21T16:18:16.942Z,10.52
2022-10-21T16:21:22.904Z,9.63
2022-10-21T16:24:26.113Z,8.68
2022-10-21T16:27:43.794Z,9.83
2022-10-21T16:30:53.482Z,10.30
2022-10-21T16:33:58.223Z,10.80
2022-10-21T16:37:01.976Z,10.43
2022-10-21T16:40:17.215Z,11.13
2022-10-21T16:43:20.604Z,10.27
2022-10-21T16:46:29.944Z,11.57
2022-10-21T16:49:35.106Z,10.50
2022-10-21T16:52:38.670Z,11.70
2022-10-21T16:55:42.223Z,10.70
2022-10-21T16:58:46.018Z,10.73
2022-10-21T17:01:49.076Z,11.52
2022-10-21T17:04:53.953Z,10.65
2022-10-21T17:07:58.447Z,12.38
2022-10-21T17:11:01.950Z,11.95
2022-10-21T17:14:08.536Z,10.98
2022-10-21T17:17:11.703Z,11.82
2022-10-21T17:20:16.612Z,12.15
2022-10-21T17:23:19.811Z,12.10
2022-10-21T17:26:24.179Z,11.80
2022-10-21T17:29:27.822Z,10.60
2022-10-21T17:32:31.746Z,12.68
2022-10-21T17:35:37.465Z,12.85
2022-10-21T17:38:42.315Z,12.85
2022-10-21T17:44:54.080Z,12.50
2022-10-21T17:47:58.425Z,12.63
2022-10-21T17:51:03.891Z,13.75
2022-10-21T17:54:08.608Z,12.23
2022-10-21T17:57:12.207Z,12.77
2022-10-21T18:00:16.499Z,11.85
2022-10-21T18:03:19.945Z,12.15
2022-10-21T18:06:24.867Z,12.07
2022-10-21T18:09:28.166Z,12.07
2022-10-21T18:12:31.773Z,12.37
2022-10-21T18:15:37.681Z,12.45
2022-10-21T18:24:49.838Z,13.85
2022-10-21T18:27:53.041Z,14.35
2022-10-21T18:30:56.301Z,12.38
2022-10-21T18:34:01.648Z,14.40
2022-10-21T18:37:06.206Z,14.15
2022-10-21T18:40:11.416Z,13.35
2022-10-21T18:43:15.014Z,13.60
2022-10-21T18:46:18.900Z,11.93
2022-10-21T18:49:22.962Z,12.05
2022-10-21T18:52:27.484Z,11.30
2022-10-21T18:55:30.695Z,13.07
2022-10-21T18:58:35.118Z,12.35
2022-10-21T19:01:39.095Z,11.85
2022-10-21T19:04:42.252Z,11.57
2022-10-21T19:07:46.834Z,11.40
2022-10-21T19:10:49.905Z,11.73
2022-10-21T19:13:53.158Z,11.98
2022-10-21T19:16:56.628Z,12.73
2022-10-21T19:20:00.792Z,12.27
2022-10-21T19:26:11.524Z,11.18
2022-10-21T19:29:17.830Z,13.15
2022-10-21T19:32:20.904Z,12.55
2022-10-21T19:35:24.364Z,12.33
2022-10-21T19:38:45.003Z,12.47
2022-10-21T19:41:49.057Z,12.73
2022-10-21T19:44:52.078Z,12.40
2022-10-21T19:47:57.693Z,10.45
2022-10-21T19:51:00.960Z,11.25
2022-10-21T19:54:08.466Z,10.87
2022-10-21T19:57:11.466Z,9.63
2022-10-21T20:00:16.918Z,10.48
2022-10-21T20:03:19.972Z,10.63
2022-10-21T20:06:26.990Z,11.32
2022-10-21T20:09:33.875Z,10.73
2022-10-21T20:12:39.825Z,11.10
2022-10-21T20:15:48.474Z,11.20
2022-10-21T20:18:51.964Z,11.13
2022-10-21T20:21:55.061Z,11.65
2022-10-21T20:24:59.500Z,10.70
2022-10-21T20:28:02.494Z,10.32
2022-10-21T20:31:08.454Z,10.55
2022-10-21T20:34:14.034Z,11.63
2022-10-21T20:37:17.316Z,11.48
2022-10-21T20:40:21.863Z,11.47
2022-10-21T20:43:25.500Z,12.20
2022-10-21T20:46:29.347Z,12.13
2022-10-21T20:49:32.637Z,12.93
2022-10-21T20:52:35.727Z,12.10
2022-10-21T20:55:41.259Z,12.20
2022-10-21T20:58:44.680Z,12.32
2022-10-21T21:01:49.064Z,12.43
2022-10-21T21:04:52.312Z,11.73
2022-10-21T21:07:55.417Z,10.80
2022-10-21T21:11:02.978Z,11.20
2022-10-21T21:14:06.441Z,12.75
2022-10-21T21:17:09.607Z,12.48
2022-10-21T21:20:13.232Z,13.50
2022-10-21T21:23:16.222Z,11.77
2022-10-21T21:26:24.504Z,11.15
2022-10-21T21:29:27.445Z,12.30
2022-10-21T21:32:30.397Z,11.75
2022-10-21T21:35:33.512Z,12.82
2022-10-21T21:38:36.615Z,11.85
2022-10-21T21:41:41.346Z,12.73
2022-10-21T21:44:44.361Z,13.55
2022-10-21T21:47:47.376Z,13.57
2022-10-21T21:50:51.377Z,13.00
2022-10-21T21:53:55.302Z,14.23
2022-10-21T21:57:26.273Z,13.32
2022-10-21T22:00:22.856Z,13.35
2022-10-21T22:03:26.099Z,13.70
2022-10-21T22:06:32.240Z,14.60
2022-10-21T22:09:35.365Z,13.50
2022-10-21T22:12:40.420Z,14.10
2022-10-21T22:15:48.145Z,13.88
2022-10-21T22:18:51.792Z,13.80
2022-10-21T22:21:54.948Z,12.82
2022-10-21T22:24:57.972Z,12.48
2022-10-21T22:28:02.643Z,13.20
2022-10-21T22:31:10.134Z,12.50
2022-10-21T22:34:13.218Z,13.80
2022-10-21T22:37:16.266Z,13.75
2022-10-21T22:40:19.511Z,12.85
2022-10-21T22:43:24.665Z,13.27
2022-10-21T22:46:35.145Z,12.18
2022-10-21T22:49:38.276Z,12.27
2022-10-21T22:52:42.559Z,13.38
2022-10-21T22:55:45.802Z,11.93
2022-10-21T22:58:50.228Z,12.73
2022-10-21T23:01:53.354Z,14.07
2022-10-21T23:04:56.532Z,12.93
2022-10-21T23:07:59.639Z,13.77
2022-10-21T23:11:02.712Z,13.80
2022-10-21T23:14:09.827Z,12.95
2022-10-21T23:17:12.920Z,12.82
2022-10-21T23:20:16.160Z,13.32
2022-10-21T23:23:19.368Z,13.93
2022-10-21T23:26:22.583Z,13.33
2022-10-21T23:29:27.616Z,12.30
2022-10-21T23:32:30.682Z,12.27
2022-10-21T23:35:34.008Z,13.43
2022-10-21T23:38:37.083Z,12.87
2022-10-21T23:41:40.153Z,12.60
2022-10-21T23:44:45.008Z,12.40
2022-10-21T23:47:48.013Z,13.02
2022-10-21T23:50:51.108Z,12.40
2022-10-21T23:53:54.200Z,13.05
2022-10-21T23:56:57.199Z,14.25
